sensor_id;sensor_type;location;lat;lon;timestamp;pressure;altitude;pressure_sealevel;temperature;humidity
52319;BME280;38258;51.148;14.068;2024-03-08T00:00:09;98894.19;;;-1.27;100.00
52319;BME280;38258;51.148;14.068;2024-03-08T00:02:38;98887.88;;;-1.38;100.00
52319;BME280;38258;51.148;14.068;2024-03-08T00:05:06;98887.94;;;-1.37;100.00
52319;BME280;38258;51.148;14.068;2024-03-08T00:07:34;98891.81;;;-1.51;100.00
52319;BME280;38258;51.148;14.068;2024-03-08T00:10:03;98891.50;;;-1.62;100.00
52319;BME280;38258;51.148;14.068;2024-03-08T00:12:30;98889.50;;;-1.73;100.00
52319;BME280;38258;51.148;14.068;2024-03-08T00:14:57;98889.34;;;-1.77;100.00
52319;BME280;38258;51.148;14.068;2024-03-08T00:17:24;98885.25;;;-1.72;100.00
52319;BME280;38258;51.148;14.068;2024-03-08T00:19:51;98876.50;;;-1.79;100.00
52319;BME280;38258;51.148;14.068;2024-03-08T00:22:17;98884.16;;;-1.80;100.00
52319;BME280;38258;51.148;14.068;2024-03-08T00:24:44;98885.94;;;-1.78;100.00
52319;BME280;38258;51.148;14.068;2024-03-08T00:27:13;98877.91;;;-1.89;100.00
52319;BME280;38258;51.148;14.068;2024-03-08T00:29:41;98885.56;;;-1.90;100.00
52319;BME280;38258;51.148;14.068;2024-03-08T00:32:08;98883.09;;;-1.87;100.00
52319;BME280;38258;51.148;14.068;2024-03-08T00:34:35;98881.34;;;-1.88;100.00
52319;BME280;38258;51.148;14.068;2024-03-08T00:37:03;98878.56;;;-1.96;100.00
52319;BME280;38258;51.148;14.068;2024-03-08T00:39:29;98877.66;;;-1.98;100.00
52319;BME280;38258;51.148;14.068;2024-03-08T00:41:56;98883.47;;;-2.04;100.00
52319;BME280;38258;51.148;14.068;2024-03-08T00:44:24;98875.81;;;-2.02;100.00
52319;BME280;38258;51.148;14.068;2024-03-08T00:46:51;98878.50;;;-1.97;100.00
52319;BME280;38258;51.148;14.068;2024-03-08T00:49:18;98875.63;;;-2.08;100.00
52319;BME280;38258;51.148;14.068;2024-03-08T00:51:45;98872.25;;;-2.07;100.00
52319;BME280;38258;51.148;14.068;2024-03-08T00:54:11;98870.97;;;-1.93;100.00
52319;BME280;38258;51.148;14.068;2024-03-08T00:56:38;98869.97;;;-1.98;100.00
52319;BME280;38258;51.148;14.068;2024-03-08T00:59:06;98866.06;;;-2.14;100.00
52319;BME280;38258;51.148;14.068;2024-03-08T01:01:34;98863.34;;;-2.19;100.00
52319;BME280;38258;51.148;14.068;2024-03-08T01:04:01;98862.75;;;-2.10;100.00
52319;BME280;38258;51.148;14.068;2024-03-08T01:06:28;98861.69;;;-2.17;100.00
52319;BME280;38258;51.148;14.068;2024-03-08T01:08:54;98855.94;;;-2.09;100.00
52319;BME280;38258;51.148;14.068;2024-03-08T01:11:21;98859.88;;;-2.21;100.00
52319;BME280;38258;51.148;14.068;2024-03-08T01:13:48;98853.78;;;-2.24;100.00
52319;BME280;38258;51.148;14.068;2024-03-08T01:16:15;98853.56;;;-2.03;100.00
52319;BME280;38258;51.148;14.068;2024-03-08T01:18:43;98849.47;;;-1.98;100.00
52319;BME280;38258;51.148;14.068;2024-03-08T01:21:10;98852.66;;;-2.05;100.00
52319;BME280;38258;51.148;14.068;2024-03-08T01:23:36;98844.50;;;-2.21;100.00
52319;BME280;38258;51.148;14.068;2024-03-08T01:26:04;98835.00;;;-2.23;100.00
52319;BME280;38258;51.148;14.068;2024-03-08T01:28:30;98835.53;;;-2.35;100.00
52319;BME280;38258;51.148;14.068;2024-03-08T01:30:59;98834.84;;;-2.30;100.00
52319;BME280;38258;51.148;14.068;2024-03-08T01:33:27;98838.09;;;-2.35;100.00
52319;BME280;38258;51.148;14.068;2024-03-08T01:35:55;98834.47;;;-2.42;100.00
52319;BME280;38258;51.148;14.068;2024-03-08T01:38:22;98831.00;;;-2.44;100.00
52319;BME280;38258;51.148;14.068;2024-03-08T01:40:49;98824.13;;;-2.45;100.00
52319;BME280;38258;51.148;14.068;2024-03-08T01:43:18;98825.72;;;-2.49;100.00
52319;BME280;38258;51.148;14.068;2024-03-08T01:45:45;98822.41;;;-2.17;100.00
52319;BME280;38258;51.148;14.068;2024-03-08T01:48:12;98814.03;;;-2.11;100.00
52319;BME280;38258;51.148;14.068;2024-03-08T01:50:40;98809.06;;;-2.34;100.00
52319;BME280;38258;51.148;14.068;2024-03-08T01:53:09;98798.00;;;-2.33;100.00
52319;BME280;38258;51.148;14.068;2024-03-08T01:55:38;98801.59;;;-1.97;100.00
52319;BME280;38258;51.148;14.068;2024-03-08T01:58:06;98802.56;;;-1.94;100.00
52319;BME280;38258;51.148;14.068;2024-03-08T02:00:34;98795.88;;;-2.19;100.00
52319;BME280;38258;51.148;14.068;2024-03-08T02:03:02;98797.38;;;-2.26;100.00
52319;BME280;38258;51.148;14.068;2024-03-08T02:05:29;98790.88;;;-1.84;100.00
52319;BME280;38258;51.148;14.068;2024-03-08T02:07:56;98799.84;;;-1.68;100.00
52319;BME280;38258;51.148;14.068;2024-03-08T02:10:24;98790.09;;;-1.81;100.00
52319;BME280;38258;51.148;14.068;2024-03-08T02:12:51;98786.22;;;-1.97;100.00
52319;BME280;38258;51.148;14.068;2024-03-08T02:15:18;98794.44;;;-2.09;100.00
52319;BME280;38258;51.148;14.068;2024-03-08T02:17:45;98789.84;;;-2.20;100.00
52319;BME280;38258;51.148;14.068;2024-03-08T02:20:11;98787.22;;;-2.23;100.00
52319;BME280;38258;51.148;14.068;2024-03-08T02:22:40;98797.53;;;-2.21;100.00
52319;BME280;38258;51.148;14.068;2024-03-08T02:25:08;98790.63;;;-2.22;100.00
52319;BME280;38258;51.148;14.068;2024-03-08T02:27:35;98786.53;;;-2.17;100.00
52319;BME280;38258;51.148;14.068;2024-03-08T02:30:01;98783.34;;;-2.08;100.00
52319;BME280;38258;51.148;14.068;2024-03-08T02:32:28;98786.59;;;-2.14;100.00
52319;BME280;38258;51.148;14.068;2024-03-08T02:34:58;98771.75;;;-1.95;100.00
52319;BME280;38258;51.148;14.068;2024-03-08T02:37:25;98777.81;;;-1.92;100.00
52319;BME280;38258;51.148;14.068;2024-03-08T02:39:55;98779.28;;;-2.02;100.00
52319;BME280;38258;51.148;14.068;2024-03-08T02:42:22;98778.72;;;-1.91;100.00
52319;BME280;38258;51.148;14.068;2024-03-08T02:44:49;98769.38;;;-1.89;100.00
52319;BME280;38258;51.148;14.068;2024-03-08T02:47:16;98762.56;;;-1.87;100.00
52319;BME280;38258;51.148;14.068;2024-03-08T02:49:43;98771.72;;;-1.97;100.00
52319;BME280;38258;51.148;14.068;2024-03-08T02:52:09;98775.13;;;-1.96;100.00
52319;BME280;38258;51.148;14.068;2024-03-08T02:54:36;98765.84;;;-1.93;100.00
52319;BME280;38258;51.148;14.068;2024-03-08T02:57:04;98773.59;;;-1.91;100.00
52319;BME280;38258;51.148;14.068;2024-03-08T02:59:32;98769.31;;;-1.91;100.00
52319;BME280;38258;51.148;14.068;2024-03-08T03:02:00;98762.44;;;-1.92;100.00
52319;BME280;38258;51.148;14.068;2024-03-08T03:04:27;98764.78;;;-2.00;100.00
52319;BME280;38258;51.148;14.068;2024-03-08T03:06:54;98763.22;;;-1.94;100.00
52319;BME280;38258;51.148;14.068;2024-03-08T03:09:20;98763.28;;;-1.93;100.00
52319;BME280;38258;51.148;14.068;2024-03-08T03:11:53;98757.63;;;-2.11;100.00
52319;BME280;38258;51.148;14.068;2024-03-08T03:14:21;98763.63;;;-2.11;100.00
52319;BME280;38258;51.148;14.068;2024-03-08T03:16:48;98761.81;;;-2.15;100.00
52319;BME280;38258;51.148;14.068;2024-03-08T03:19:15;98761.25;;;-2.05;100.00
52319;BME280;38258;51.148;14.068;2024-03-08T03:21:42;98764.16;;;-2.23;100.00
52319;BME280;38258;51.148;14.068;2024-03-08T03:24:09;98763.66;;;-2.09;100.00
52319;BME280;38258;51.148;14.068;2024-03-08T03:26:36;98763.16;;;-2.28;100.00
52319;BME280;38258;51.148;14.068;2024-03-08T03:29:04;98766.50;;;-2.31;100.00
52319;BME280;38258;51.148;14.068;2024-03-08T03:31:33;98763.63;;;-2.40;100.00
52319;BME280;38258;51.148;14.068;2024-03-08T03:33:59;98753.72;;;-2.29;100.00
52319;BME280;38258;51.148;14.068;2024-03-08T03:36:28;98768.44;;;-2.22;100.00
52319;BME280;38258;51.148;14.068;2024-03-08T03:38:55;98758.28;;;-2.19;100.00
52319;BME280;38258;51.148;14.068;2024-03-08T03:41:30;98760.41;;;-2.34;100.00
52319;BME280;38258;51.148;14.068;2024-03-08T03:43:57;98762.81;;;-2.39;100.00
52319;BME280;38258;51.148;14.068;2024-03-08T03:46:24;98754.97;;;-2.45;100.00
52319;BME280;38258;51.148;14.068;2024-03-08T03:48:54;98751.16;;;-2.29;100.00
52319;BME280;38258;51.148;14.068;2024-03-08T03:51:20;98749.50;;;-2.27;100.00
52319;BME280;38258;51.148;14.068;2024-03-08T03:53:47;98747.88;;;-2.25;100.00
52319;BME280;38258;51.148;14.068;2024-03-08T03:56:14;98753.91;;;-2.23;100.00
52319;BME280;38258;51.148;14.068;2024-03-08T03:58:41;98751.66;;;-2.41;100.00
52319;BME280;38258;51.148;14.068;2024-03-08T04:01:08;98749.91;;;-2.44;100.00
52319;BME280;38258;51.148;14.068;2024-03-08T04:03:35;98746.84;;;-2.30;100.00
52319;BME280;38258;51.148;14.068;2024-03-08T04:06:04;98750.06;;;-2.37;100.00
52319;BME280;38258;51.148;14.068;2024-03-08T04:08:32;98749.38;;;-2.32;100.00
52319;BME280;38258;51.148;14.068;2024-03-08T04:11:00;98754.31;;;-2.38;100.00
52319;BME280;38258;51.148;14.068;2024-03-08T04:13:27;98748.94;;;-2.47;100.00
52319;BME280;38258;51.148;14.068;2024-03-08T04:15:54;98746.22;;;-2.52;100.00
52319;BME280;38258;51.148;14.068;2024-03-08T04:18:20;98752.47;;;-2.42;100.00
52319;BME280;38258;51.148;14.068;2024-03-08T04:20:47;98745.34;;;-2.52;100.00
52319;BME280;38258;51.148;14.068;2024-03-08T04:23:15;98741.16;;;-2.50;100.00
52319;BME280;38258;51.148;14.068;2024-03-08T04:25:43;98739.22;;;-2.58;100.00
52319;BME280;38258;51.148;14.068;2024-03-08T04:28:10;98740.56;;;-2.71;100.00
52319;BME280;38258;51.148;14.068;2024-03-08T04:30:37;98737.94;;;-2.72;100.00
52319;BME280;38258;51.148;14.068;2024-03-08T04:33:04;98733.41;;;-2.81;100.00
52319;BME280;38258;51.148;14.068;2024-03-08T04:35:32;98732.53;;;-2.81;100.00
52319;BME280;38258;51.148;14.068;2024-03-08T04:37:58;98732.88;;;-2.98;100.00
52319;BME280;38258;51.148;14.068;2024-03-08T04:40:26;98729.94;;;-2.83;100.00
52319;BME280;38258;51.148;14.068;2024-03-08T04:42:53;98728.00;;;-2.61;100.00
52319;BME280;38258;51.148;14.068;2024-03-08T04:45:20;98730.91;;;-2.79;100.00
52319;BME280;38258;51.148;14.068;2024-03-08T04:47:47;98720.75;;;-2.47;100.00
52319;BME280;38258;51.148;14.068;2024-03-08T04:50:14;98723.53;;;-2.39;100.00
52319;BME280;38258;51.148;14.068;2024-03-08T04:52:41;98724.84;;;-2.52;100.00
52319;BME280;38258;51.148;14.068;2024-03-08T04:55:08;98717.53;;;-2.69;100.00
52319;BME280;38258;51.148;14.068;2024-03-08T04:57:36;98724.84;;;-2.52;100.00
52319;BME280;38258;51.148;14.068;2024-03-08T05:00:03;98730.94;;;-2.49;100.00
52319;BME280;38258;51.148;14.068;2024-03-08T05:02:36;98730.34;;;-2.40;100.00
52319;BME280;38258;51.148;14.068;2024-03-08T05:05:04;98725.22;;;-2.40;100.00
52319;BME280;38258;51.148;14.068;2024-03-08T05:07:32;98724.28;;;-2.44;100.00
52319;BME280;38258;51.148;14.068;2024-03-08T05:09:59;98718.22;;;-2.75;100.00
52319;BME280;38258;51.148;14.068;2024-03-08T05:12:26;98721.97;;;-2.63;100.00
52319;BME280;38258;51.148;14.068;2024-03-08T05:14:54;98713.63;;;-2.58;100.00
52319;BME280;38258;51.148;14.068;2024-03-08T05:17:20;98714.59;;;-2.52;100.00
52319;BME280;38258;51.148;14.068;2024-03-08T05:19:49;98712.94;;;-2.52;100.00
52319;BME280;38258;51.148;14.068;2024-03-08T05:22:16;98711.09;;;-2.56;100.00
52319;BME280;38258;51.148;14.068;2024-03-08T05:24:42;98708.78;;;-2.77;100.00
52319;BME280;38258;51.148;14.068;2024-03-08T05:27:09;98714.50;;;-2.57;100.00
52319;BME280;38258;51.148;14.068;2024-03-08T05:29:36;98710.44;;;-2.50;100.00
52319;BME280;38258;51.148;14.068;2024-03-08T05:32:04;98702.91;;;-2.44;100.00
52319;BME280;38258;51.148;14.068;2024-03-08T05:34:32;98703.66;;;-2.47;100.00
52319;BME280;38258;51.148;14.068;2024-03-08T05:37:00;98707.84;;;-2.50;100.00
52319;BME280;38258;51.148;14.068;2024-03-08T05:39:27;98713.47;;;-2.62;100.00
52319;BME280;38258;51.148;14.068;2024-03-08T05:41:54;98716.63;;;-2.71;100.00
52319;BME280;38258;51.148;14.068;2024-03-08T05:44:22;98719.09;;;-2.74;100.00
52319;BME280;38258;51.148;14.068;2024-03-08T05:46:48;98718.31;;;-2.43;100.00
52319;BME280;38258;51.148;14.068;2024-03-08T05:49:17;98709.06;;;-2.37;100.00
52319;BME280;38258;51.148;14.068;2024-03-08T05:51:44;98709.00;;;-2.40;100.00
52319;BME280;38258;51.148;14.068;2024-03-08T05:54:13;98703.81;;;-2.42;100.00
52319;BME280;38258;51.148;14.068;2024-03-08T05:56:40;98708.91;;;-2.44;100.00
52319;BME280;38258;51.148;14.068;2024-03-08T05:59:07;98709.44;;;-2.25;100.00
52319;BME280;38258;51.148;14.068;2024-03-08T06:01:34;98709.59;;;-2.19;100.00
52319;BME280;38258;51.148;14.068;2024-03-08T06:04:02;98708.88;;;-2.13;100.00
52319;BME280;38258;51.148;14.068;2024-03-08T06:06:31;98711.63;;;-2.07;100.00
52319;BME280;38258;51.148;14.068;2024-03-08T06:08:57;98717.66;;;-2.05;100.00
52319;BME280;38258;51.148;14.068;2024-03-08T06:11:25;98711.72;;;-2.04;100.00
52319;BME280;38258;51.148;14.068;2024-03-08T06:13:52;98714.56;;;-1.93;100.00
52319;BME280;38258;51.148;14.068;2024-03-08T06:16:25;98712.97;;;-1.88;100.00
52319;BME280;38258;51.148;14.068;2024-03-08T06:18:55;98713.09;;;-1.85;100.00
52319;BME280;38258;51.148;14.068;2024-03-08T06:21:22;98718.28;;;-1.81;100.00
52319;BME280;38258;51.148;14.068;2024-03-08T06:23:54;98710.41;;;-1.88;100.00
52319;BME280;38258;51.148;14.068;2024-03-08T06:26:22;98719.06;;;-1.84;100.00
52319;BME280;38258;51.148;14.068;2024-03-08T06:28:49;98709.72;;;-1.82;100.00
52319;BME280;38258;51.148;14.068;2024-03-08T06:31:17;98711.84;;;-1.65;100.00
52319;BME280;38258;51.148;14.068;2024-03-08T06:33:45;98710.22;;;-1.62;100.00
52319;BME280;38258;51.148;14.068;2024-03-08T06:36:12;98698.28;;;-1.61;100.00
52319;BME280;38258;51.148;14.068;2024-03-08T06:38:38;98699.38;;;-1.51;100.00
52319;BME280;38258;51.148;14.068;2024-03-08T06:41:09;98702.09;;;-1.45;100.00
52319;BME280;38258;51.148;14.068;2024-03-08T06:43:41;98701.25;;;-1.46;100.00
52319;BME280;38258;51.148;14.068;2024-03-08T06:46:08;98706.78;;;-1.29;100.00
52319;BME280;38258;51.148;14.068;2024-03-08T06:48:35;98698.88;;;-1.38;100.00
52319;BME280;38258;51.148;14.068;2024-03-08T06:51:03;98698.25;;;-1.27;100.00
52319;BME280;38258;51.148;14.068;2024-03-08T06:53:30;98700.25;;;-1.16;100.00
52319;BME280;38258;51.148;14.068;2024-03-08T06:55:57;98701.97;;;-1.15;100.00
52319;BME280;38258;51.148;14.068;2024-03-08T06:58:25;98697.75;;;-1.12;100.00
52319;BME280;38258;51.148;14.068;2024-03-08T07:00:53;98705.38;;;-1.16;100.00
52319;BME280;38258;51.148;14.068;2024-03-08T07:03:23;98703.88;;;-1.06;100.00
52319;BME280;38258;51.148;14.068;2024-03-08T07:05:52;98694.69;;;-0.96;100.00
52319;BME280;38258;51.148;14.068;2024-03-08T07:08:18;98701.91;;;-0.79;100.00
52319;BME280;38258;51.148;14.068;2024-03-08T07:10:47;98693.56;;;-0.69;100.00
52319;BME280;38258;51.148;14.068;2024-03-08T07:13:14;98696.41;;;-0.57;100.00
52319;BME280;38258;51.148;14.068;2024-03-08T07:15:43;98688.06;;;-0.46;100.00
52319;BME280;38258;51.148;14.068;2024-03-08T07:18:11;98693.38;;;-0.38;100.00
52319;BME280;38258;51.148;14.068;2024-03-08T07:20:40;98676.66;;;-0.16;100.00
52319;BME280;38258;51.148;14.068;2024-03-08T07:23:07;98679.53;;;-0.01;100.00
52319;BME280;38258;51.148;14.068;2024-03-08T07:25:36;98681.69;;;0.24;100.00
52319;BME280;38258;51.148;14.068;2024-03-08T07:28:04;98679.09;;;0.76;100.00
52319;BME280;38258;51.148;14.068;2024-03-08T07:30:31;98681.00;;;0.87;100.00
52319;BME280;38258;51.148;14.068;2024-03-08T07:33:22;98685.41;;;0.94;100.00
52319;BME280;38258;51.148;14.068;2024-03-08T07:35:49;98679.91;;;1.31;100.00
52319;BME280;38258;51.148;14.068;2024-03-08T07:38:15;98684.06;;;1.19;100.00
52319;BME280;38258;51.148;14.068;2024-03-08T07:40:42;98671.28;;;1.27;100.00
52319;BME280;38258;51.148;14.068;2024-03-08T07:43:10;98674.53;;;1.83;100.00
52319;BME280;38258;51.148;14.068;2024-03-08T07:45:37;98670.66;;;2.22;100.00
52319;BME280;38258;51.148;14.068;2024-03-08T07:48:05;98667.63;;;1.80;100.00
52319;BME280;38258;51.148;14.068;2024-03-08T07:50:37;98660.84;;;2.81;100.00
52319;BME280;38258;51.148;14.068;2024-03-08T07:53:04;98666.69;;;2.62;100.00
52319;BME280;38258;51.148;14.068;2024-03-08T07:55:31;98663.50;;;2.95;100.00
52319;BME280;38258;51.148;14.068;2024-03-08T07:57:58;98653.91;;;2.77;100.00
52319;BME280;38258;51.148;14.068;2024-03-08T08:00:25;98656.53;;;2.85;100.00
52319;BME280;38258;51.148;14.068;2024-03-08T08:02:52;98653.50;;;3.53;100.00
52319;BME280;38258;51.148;14.068;2024-03-08T08:05:19;98653.50;;;3.53;100.00
52319;BME280;38258;51.148;14.068;2024-03-08T08:07:47;98653.56;;;3.68;100.00
52319;BME280;38258;51.148;14.068;2024-03-08T08:10:15;98646.66;;;3.67;100.00
52319;BME280;38258;51.148;14.068;2024-03-08T08:12:44;98659.44;;;3.35;100.00
52319;BME280;38258;51.148;14.068;2024-03-08T08:15:11;98656.84;;;3.36;100.00
52319;BME280;38258;51.148;14.068;2024-03-08T08:17:38;98644.22;;;4.50;100.00
52319;BME280;38258;51.148;14.068;2024-03-08T08:20:05;98648.50;;;4.99;100.00
52319;BME280;38258;51.148;14.068;2024-03-08T08:22:32;98650.97;;;5.50;100.00
52319;BME280;38258;51.148;14.068;2024-03-08T08:25:00;98641.47;;;5.43;100.00
52319;BME280;38258;51.148;14.068;2024-03-08T08:27:27;98649.38;;;4.86;100.00
52319;BME280;38258;51.148;14.068;2024-03-08T08:29:54;98648.50;;;4.80;100.00
52319;BME280;38258;51.148;14.068;2024-03-08T08:32:21;98645.94;;;4.43;100.00
52319;BME280;38258;51.148;14.068;2024-03-08T08:34:47;98641.63;;;4.75;100.00
52319;BME280;38258;51.148;14.068;2024-03-08T08:37:14;98644.19;;;4.51;100.00
52319;BME280;38258;51.148;14.068;2024-03-08T08:39:41;98637.28;;;4.95;100.00
52319;BME280;38258;51.148;14.068;2024-03-08T08:42:09;98636.63;;;6.48;100.00
52319;BME280;38258;51.148;14.068;2024-03-08T08:44:36;98634.41;;;5.78;98.12
52319;BME280;38258;51.148;14.068;2024-03-08T08:47:03;98638.44;;;6.32;99.71
52319;BME280;38258;51.148;14.068;2024-03-08T08:49:30;98635.53;;;4.93;99.45
52319;BME280;38258;51.148;14.068;2024-03-08T08:51:57;98636.41;;;4.28;100.00
52319;BME280;38258;51.148;14.068;2024-03-08T08:54:24;98634.69;;;4.91;100.00
52319;BME280;38258;51.148;14.068;2024-03-08T08:56:52;98626.03;;;5.03;98.99
52319;BME280;38258;51.148;14.068;2024-03-08T08:59:21;98624.34;;;4.26;100.00
52319;BME280;38258;51.148;14.068;2024-03-08T09:01:50;98615.63;;;5.07;100.00
52319;BME280;38258;51.148;14.068;2024-03-08T09:04:19;98617.31;;;5.35;99.61
52319;BME280;38258;51.148;14.068;2024-03-08T09:06:47;98616.66;;;6.50;94.51
52319;BME280;38258;51.148;14.068;2024-03-08T09:09:13;98607.94;;;4.48;100.00
52319;BME280;38258;51.148;14.068;2024-03-08T09:11:42;98612.69;;;5.93;100.00
52319;BME280;38258;51.148;14.068;2024-03-08T09:14:09;98611.63;;;6.30;94.91
52319;BME280;38258;51.148;14.068;2024-03-08T09:16:38;98612.88;;;5.57;94.19
52319;BME280;38258;51.148;14.068;2024-03-08T09:19:05;98611.66;;;6.27;95.52
52319;BME280;38258;51.148;14.068;2024-03-08T09:21:32;98616.13;;;7.11;82.85
52319;BME280;38258;51.148;14.068;2024-03-08T09:24:00;98610.13;;;5.87;85.68
52319;BME280;38258;51.148;14.068;2024-03-08T09:26:27;98611.31;;;5.13;91.38
52319;BME280;38258;51.148;14.068;2024-03-08T09:28:53;98616.50;;;5.16;99.50
52319;BME280;38258;51.148;14.068;2024-03-08T09:31:21;98609.94;;;6.22;91.72
52319;BME280;38258;51.148;14.068;2024-03-08T09:33:49;98610.56;;;6.56;93.22
52319;BME280;38258;51.148;14.068;2024-03-08T09:36:17;98600.91;;;6.69;86.13
52319;BME280;38258;51.148;14.068;2024-03-08T09:38:44;98603.44;;;5.34;96.32
52319;BME280;38258;51.148;14.068;2024-03-08T09:41:10;98589.97;;;7.90;88.92
52319;BME280;38258;51.148;14.068;2024-03-08T09:43:38;98600.91;;;5.22;96.95
52319;BME280;38258;51.148;14.068;2024-03-08T09:46:06;98593.47;;;6.23;98.36
52319;BME280;38258;51.148;14.068;2024-03-08T09:48:34;98588.75;;;6.71;94.46
52319;BME280;38258;51.148;14.068;2024-03-08T09:51:03;98594.06;;;6.60;91.86
52319;BME280;38258;51.148;14.068;2024-03-08T09:53:30;98577.22;;;7.70;90.27
52319;BME280;38258;51.148;14.068;2024-03-08T09:55:57;98589.03;;;6.38;85.01
52319;BME280;38258;51.148;14.068;2024-03-08T09:58:24;98584.00;;;6.16;90.69
52319;BME280;38258;51.148;14.068;2024-03-08T10:01:19;98572.88;;;8.82;80.69
52319;BME280;38258;51.148;14.068;2024-03-08T10:03:47;98572.59;;;7.24;76.85
52319;BME280;38258;51.148;14.068;2024-03-08T10:06:16;98570.72;;;8.01;78.14
52319;BME280;38258;51.148;14.068;2024-03-08T10:08:43;98572.09;;;7.64;77.04
52319;BME280;38258;51.148;14.068;2024-03-08T10:11:10;98567.16;;;7.44;78.24
52319;BME280;38258;51.148;14.068;2024-03-08T10:13:38;98565.03;;;9.29;75.05
52319;BME280;38258;51.148;14.068;2024-03-08T10:16:06;98562.84;;;8.05;73.59
52319;BME280;38258;51.148;14.068;2024-03-08T10:18:33;98567.28;;;6.50;83.93
52319;BME280;38258;51.148;14.068;2024-03-08T10:21:04;98565.56;;;7.98;77.98
52319;BME280;38258;51.148;14.068;2024-03-08T10:23:33;98555.22;;;8.97;74.27
52319;BME280;38258;51.148;14.068;2024-03-08T10:26:15;98545.22;;;8.73;73.78
52319;BME280;38258;51.148;14.068;2024-03-08T10:28:44;98557.59;;;8.62;74.88
52319;BME280;38258;51.148;14.068;2024-03-08T10:31:13;98562.63;;;6.83;77.50
52319;BME280;38258;51.148;14.068;2024-03-08T10:33:40;98562.25;;;6.31;83.75
52319;BME280;38258;51.148;14.068;2024-03-08T10:36:08;98562.53;;;7.66;82.14
52319;BME280;38258;51.148;14.068;2024-03-08T10:38:37;98561.75;;;7.61;75.91
52319;BME280;38258;51.148;14.068;2024-03-08T10:41:06;98550.59;;;9.11;78.02
52319;BME280;38258;51.148;14.068;2024-03-08T10:43:46;98548.09;;;9.49;77.10
52319;BME280;38258;51.148;14.068;2024-03-08T10:46:27;98555.28;;;8.43;72.56
52319;BME280;38258;51.148;14.068;2024-03-08T10:48:58;98554.78;;;8.19;73.71
52319;BME280;38258;51.148;14.068;2024-03-08T10:51:29;98558.47;;;6.68;83.84
52319;BME280;38258;51.148;14.068;2024-03-08T10:53:59;98553.31;;;7.39;80.51
52319;BME280;38258;51.148;14.068;2024-03-08T10:56:28;98555.38;;;6.26;86.03
52319;BME280;38258;51.148;14.068;2024-03-08T10:58:55;98544.34;;;6.91;87.35
52319;BME280;38258;51.148;14.068;2024-03-08T11:01:23;98541.03;;;7.50;85.59
52319;BME280;38258;51.148;14.068;2024-03-08T11:03:51;98541.13;;;7.42;80.51
52319;BME280;38258;51.148;14.068;2024-03-08T11:06:22;98537.69;;;7.40;83.08
52319;BME280;38258;51.148;14.068;2024-03-08T11:08:48;98532.06;;;8.80;76.66
52319;BME280;38258;51.148;14.068;2024-03-08T11:11:27;98530.69;;;9.50;75.41
52319;BME280;38258;51.148;14.068;2024-03-08T11:13:56;98526.28;;;9.09;76.09
52319;BME280;38258;51.148;14.068;2024-03-08T11:16:40;98536.72;;;7.49;76.27
52319;BME280;38258;51.148;14.068;2024-03-08T11:19:24;98521.88;;;7.57;77.07
52319;BME280;38258;51.148;14.068;2024-03-08T11:21:58;98516.16;;;11.14;71.39
52319;BME280;38258;51.148;14.068;2024-03-08T11:24:24;98515.16;;;8.54;75.24
52319;BME280;38258;51.148;14.068;2024-03-08T11:26:57;98512.75;;;8.88;72.41
52319;BME280;38258;51.148;14.068;2024-03-08T11:29:35;98506.38;;;9.85;68.38
52319;BME280;38258;51.148;14.068;2024-03-08T11:32:07;98508.28;;;7.96;75.33
52319;BME280;38258;51.148;14.068;2024-03-08T11:34:34;98504.88;;;9.75;73.02
52319;BME280;38258;51.148;14.068;2024-03-08T11:37:00;98498.00;;;9.71;70.12
52319;BME280;38258;51.148;14.068;2024-03-08T11:39:27;98497.69;;;8.59;70.90
52319;BME280;38258;51.148;14.068;2024-03-08T11:41:57;98491.97;;;10.40;68.00
52319;BME280;38258;51.148;14.068;2024-03-08T11:44:26;98477.84;;;11.42;70.39
52319;BME280;38258;51.148;14.068;2024-03-08T11:46:54;98489.56;;;8.24;72.57
52319;BME280;38258;51.148;14.068;2024-03-08T11:49:21;98481.31;;;8.49;72.91
52319;BME280;38258;51.148;14.068;2024-03-08T11:51:51;98487.59;;;9.69;71.62
52319;BME280;38258;51.148;14.068;2024-03-08T11:54:19;98475.50;;;10.36;65.95
52319;BME280;38258;51.148;14.068;2024-03-08T11:56:46;98473.59;;;8.43;69.55
52319;BME280;38258;51.148;14.068;2024-03-08T11:59:14;98466.47;;;9.41;74.67
52319;BME280;38258;51.148;14.068;2024-03-08T12:01:43;98466.63;;;10.09;67.99
52319;BME280;38258;51.148;14.068;2024-03-08T12:04:12;98458.44;;;9.09;67.12
52319;BME280;38258;51.148;14.068;2024-03-08T12:06:39;98459.28;;;9.88;66.47
52319;BME280;38258;51.148;14.068;2024-03-08T12:09:10;98452.03;;;9.24;68.27
52319;BME280;38258;51.148;14.068;2024-03-08T12:11:37;98451.50;;;9.08;68.19
52319;BME280;38258;51.148;14.068;2024-03-08T12:14:03;98444.44;;;9.13;69.99
52319;BME280;38258;51.148;14.068;2024-03-08T12:16:33;98445.25;;;8.74;69.23
52319;BME280;38258;51.148;14.068;2024-03-08T12:18:59;98441.06;;;8.66;70.80
52319;BME280;38258;51.148;14.068;2024-03-08T12:21:31;98434.22;;;9.80;66.66
52319;BME280;38258;51.148;14.068;2024-03-08T12:24:03;98438.66;;;8.99;68.17
52319;BME280;38258;51.148;14.068;2024-03-08T12:26:30;98434.88;;;9.12;72.13
52319;BME280;38258;51.148;14.068;2024-03-08T12:29:16;98432.13;;;10.29;65.86
52319;BME280;38258;51.148;14.068;2024-03-08T12:31:46;98431.63;;;8.10;71.05
52319;BME280;38258;51.148;14.068;2024-03-08T12:34:14;98425.59;;;8.56;71.96
52319;BME280;38258;51.148;14.068;2024-03-08T12:36:47;98416.75;;;9.45;68.27
52319;BME280;38258;51.148;14.068;2024-03-08T12:39:16;98417.69;;;9.03;70.15
52319;BME280;38258;51.148;14.068;2024-03-08T12:41:43;98403.63;;;10.83;69.72
52319;BME280;38258;51.148;14.068;2024-03-08T12:44:10;98407.50;;;8.93;70.00
52319;BME280;38258;51.148;14.068;2024-03-08T12:46:37;98396.09;;;10.40;71.53
52319;BME280;38258;51.148;14.068;2024-03-08T12:49:08;98406.31;;;9.45;67.87
52319;BME280;38258;51.148;14.068;2024-03-08T12:51:36;98387.53;;;10.02;71.99